sensor_id;sensor_type;location;lat;lon;timestamp;pressure;altitude;pressure_sealevel;temperature;humidity
81835;BME280;71272;52.166;4.498;2024-03-23T00:53:24;101138.28;;;10.82;100.00
81835;BME280;71272;52.166;4.498;2024-03-23T00:55:50;101131.09;;;10.99;100.00
81835;BME280;71272;52.166;4.498;2024-03-23T00:58:15;101127.50;;;10.92;100.00
81835;BME280;71272;52.166;4.498;2024-03-23T01:00:41;101125.88;;;10.87;100.00
81835;BME280;71272;52.166;4.498;2024-03-23T01:03:06;101125.88;;;10.91;100.00
81835;BME280;71272;52.166;4.498;2024-03-23T01:05:31;101124.66;;;10.81;100.00
81835;BME280;71272;52.166;4.498;2024-03-23T01:07:56;101117.38;;;10.58;100.00
81835;BME280;71272;52.166;4.498;2024-03-23T01:10:22;101119.41;;;10.69;100.00
81835;BME280;71272;52.166;4.498;2024-03-23T01:12:47;101111.34;;;10.46;100.00
81835;BME280;71272;52.166;4.498;2024-03-23T01:15:12;101102.50;;;10.36;100.00
81835;BME280;71272;52.166;4.498;2024-03-23T01:17:38;101106.53;;;10.42;100.00
81835;BME280;71272;52.166;4.498;2024-03-23T01:20:03;101099.72;;;10.43;100.00
81835;BME280;71272;52.166;4.498;2024-03-23T01:22:29;101105.28;;;10.29;100.00
81835;BME280;71272;52.166;4.498;2024-03-23T01:24:54;101107.69;;;10.31;100.00
81835;BME280;71272;52.166;4.498;2024-03-23T01:27:20;101108.03;;;10.26;100.00
81835;BME280;71272;52.166;4.498;2024-03-23T01:29:45;101107.75;;;10.45;100.00
81835;BME280;71272;52.166;4.498;2024-03-23T01:32:10;101105.28;;;10.33;100.00
81835;BME280;71272;52.166;4.498;2024-03-23T01:34:36;101112.78;;;10.14;100.00
81835;BME280;71272;52.166;4.498;2024-03-23T01:37:01;101108.50;;;10.31;100.00
81835;BME280;71272;52.166;4.498;2024-03-23T01:39:26;101098.94;;;10.47;100.00
81835;BME280;71272;52.166;4.498;2024-03-23T01:41:52;101096.13;;;10.43;100.00
81835;BME280;71272;52.166;4.498;2024-03-23T01:44:17;101088.09;;;10.41;100.00
81835;BME280;71272;52.166;4.498;2024-03-23T01:46:43;101090.09;;;10.44;100.00
81835;BME280;71272;52.166;4.498;2024-03-23T01:49:09;101090.84;;;10.31;100.00
81835;BME280;71272;52.166;4.498;2024-03-23T01:51:35;101087.31;;;10.55;100.00
81835;BME280;71272;52.166;4.498;2024-03-23T01:54:02;101094.97;;;10.69;100.00
81835;BME280;71272;52.166;4.498;2024-03-23T01:56:29;101091.31;;;10.43;100.00
81835;BME280;71272;52.166;4.498;2024-03-23T01:58:55;101091.91;;;6.83;100.00
81835;BME280;71272;52.166;4.498;2024-03-23T02:01:20;101091.66;;;6.92;100.00
81835;BME280;71272;52.166;4.498;2024-03-23T02:03:46;101092.91;;;6.52;100.00
81835;BME280;71272;52.166;4.498;2024-03-23T02:06:11;101087.72;;;6.50;100.00
81835;BME280;71272;52.166;4.498;2024-03-23T02:08:36;101083.16;;;6.61;100.00
81835;BME280;71272;52.166;4.498;2024-03-23T02:11:02;101072.25;;;6.76;100.00
81835;BME280;71272;52.166;4.498;2024-03-23T02:13:27;101071.56;;;6.59;100.00
81835;BME280;71272;52.166;4.498;2024-03-23T02:15:53;101068.97;;;6.70;100.00
81835;BME280;71272;52.166;4.498;2024-03-23T02:18:18;101073.41;;;6.52;100.00
81835;BME280;71272;52.166;4.498;2024-03-23T02:20:43;101062.06;;;6.60;100.00
81835;BME280;71272;52.166;4.498;2024-03-23T02:23:16;101059.06;;;6.73;100.00
81835;BME280;71272;52.166;4.498;2024-03-23T02:25:43;101055.28;;;6.84;100.00
81835;BME280;71272;52.166;4.498;2024-03-23T02:28:08;101053.63;;;6.80;100.00
81835;BME280;71272;52.166;4.498;2024-03-23T02:30:34;101050.34;;;6.74;100.00
81835;BME280;71272;52.166;4.498;2024-03-23T02:32:59;101053.53;;;6.76;100.00
81835;BME280;71272;52.166;4.498;2024-03-23T02:35:24;101035.91;;;6.69;100.00
81835;BME280;71272;52.166;4.498;2024-03-23T02:37:50;101044.56;;;6.63;100.00
81835;BME280;71272;52.166;4.498;2024-03-23T02:40:16;101039.38;;;6.62;100.00
81835;BME280;71272;52.166;4.498;2024-03-23T02:42:41;101036.56;;;6.62;100.00
81835;BME280;71272;52.166;4.498;2024-03-23T02:45:07;101039.34;;;7.61;100.00
81835;BME280;71272;52.166;4.498;2024-03-23T02:47:33;101031.69;;;6.55;100.00
81835;BME280;71272;52.166;4.498;2024-03-23T02:49:58;101035.59;;;6.51;100.00
81835;BME280;71272;52.166;4.498;2024-03-23T02:52:23;101028.50;;;6.57;100.00
81835;BME280;71272;52.166;4.498;2024-03-23T02:54:49;101023.25;;;6.75;100.00
81835;BME280;71272;52.166;4.498;2024-03-23T02:57:14;101029.28;;;6.77;100.00
81835;BME280;71272;52.166;4.498;2024-03-23T02:59:40;101033.28;;;7.02;100.00
81835;BME280;71272;52.166;4.498;2024-03-23T03:02:05;101031.50;;;7.17;100.00
81835;BME280;71272;52.166;4.498;2024-03-23T03:04:31;101033.28;;;7.29;100.00
81835;BME280;71272;52.166;4.498;2024-03-23T03:06:56;101028.63;;;7.37;100.00
81835;BME280;71272;52.166;4.498;2024-03-23T03:09:21;101031.50;;;7.44;100.00
81835;BME280;71272;52.166;4.498;2024-03-23T03:11:47;101030.34;;;7.45;100.00
81835;BME280;71272;52.166;4.498;2024-03-23T03:14:12;101033.06;;;7.41;100.00
81835;BME280;71272;52.166;4.498;2024-03-23T03:16:38;101033.28;;;7.29;100.00
81835;BME280;71272;52.166;4.498;2024-03-23T03:19:03;101027.22;;;7.23;100.00
81835;BME280;71272;52.166;4.498;2024-03-23T03:21:29;101022.00;;;7.22;100.00
81835;BME280;71272;52.166;4.498;2024-03-23T03:23:54;101024.47;;;7.27;100.00
81835;BME280;71272;52.166;4.498;2024-03-23T03:26:21;101020.25;;;7.10;100.00
81835;BME280;71272;52.166;4.498;2024-03-23T03:28:46;101020.78;;;7.19;100.00
81835;BME280;71272;52.166;4.498;2024-03-23T03:31:14;101021.50;;;7.13;100.00
81835;BME280;71272;52.166;4.498;2024-03-23T03:33:40;101017.28;;;6.99;100.00
81835;BME280;71272;52.166;4.498;2024-03-23T03:36:05;101013.59;;;6.92;100.00
81835;BME280;71272;52.166;4.498;2024-03-23T03:38:31;101012.34;;;6.89;100.00
81835;BME280;71272;52.166;4.498;2024-03-23T03:40:56;101002.78;;;6.90;100.00
81835;BME280;71272;52.166;4.498;2024-03-23T03:43:23;100996.50;;;6.93;100.00
81835;BME280;71272;52.166;4.498;2024-03-23T03:45:53;101004.72;;;6.86;100.00
81835;BME280;71272;52.166;4.498;2024-03-23T03:48:18;101003.19;;;6.88;100.00
81835;BME280;71272;52.166;4.498;2024-03-23T03:50:43;100999.47;;;6.81;100.00
81835;BME280;71272;52.166;4.498;2024-03-23T03:53:08;101002.94;;;6.74;100.00
81835;BME280;71272;52.166;4.498;2024-03-23T03:55:34;100994.50;;;6.71;100.00
81835;BME280;71272;52.166;4.498;2024-03-23T03:57:59;100993.41;;;6.75;100.00
81835;BME280;71272;52.166;4.498;2024-03-23T04:00:24;100997.06;;;6.79;100.00
81835;BME280;71272;52.166;4.498;2024-03-23T04:02:50;100985.84;;;6.76;100.00
81835;BME280;71272;52.166;4.498;2024-03-23T04:05:15;100984.81;;;6.61;100.00
81835;BME280;71272;52.166;4.498;2024-03-23T04:07:42;100989.25;;;6.65;100.00
81835;BME280;71272;52.166;4.498;2024-03-23T04:10:07;100985.47;;;6.54;100.00
81835;BME280;71272;52.166;4.498;2024-03-23T04:12:33;100990.63;;;6.52;100.00
81835;BME280;71272;52.166;4.498;2024-03-23T04:14:59;100988.03;;;6.63;100.00
81835;BME280;71272;52.166;4.498;2024-03-23T04:17:24;100988.53;;;6.69;100.00
81835;BME280;71272;52.166;4.498;2024-03-23T04:19:50;100971.16;;;6.79;100.00
81835;BME280;71272;52.166;4.498;2024-03-23T04:22:17;100979.22;;;6.61;100.00
81835;BME280;71272;52.166;4.498;2024-03-23T04:24:43;100975.38;;;6.69;100.00
81835;BME280;71272;52.166;4.498;2024-03-23T04:27:08;100980.97;;;6.69;100.00
81835;BME280;71272;52.166;4.498;2024-03-23T04:29:33;100978.56;;;6.94;100.00
81835;BME280;71272;52.166;4.498;2024-03-23T04:31:58;100974.91;;;6.63;100.00
81835;BME280;71272;52.166;4.498;2024-03-23T04:34:24;100981.31;;;6.67;100.00
81835;BME280;71272;52.166;4.498;2024-03-23T04:36:50;100972.50;;;6.88;100.00
81835;BME280;71272;52.166;4.498;2024-03-23T04:39:15;100982.06;;;6.87;100.00
81835;BME280;71272;52.166;4.498;2024-03-23T04:41:40;100984.13;;;6.94;100.00
81835;BME280;71272;52.166;4.498;2024-03-23T04:44:06;100990.47;;;6.91;100.00
81835;BME280;71272;52.166;4.498;2024-03-23T04:46:31;100986.22;;;7.01;100.00
81835;BME280;71272;52.166;4.498;2024-03-23T04:48:56;100986.19;;;6.97;100.00
81835;BME280;71272;52.166;4.498;2024-03-23T04:51:22;100988.69;;;7.06;100.00
81835;BME280;71272;52.166;4.498;2024-03-23T04:53:48;100997.63;;;7.15;100.00
81835;BME280;71272;52.166;4.498;2024-03-23T04:56:14;100993.75;;;7.23;100.00
81835;BME280;71272;52.166;4.498;2024-03-23T04:58:40;100992.13;;;7.22;100.00
81835;BME280;71272;52.166;4.498;2024-03-23T05:01:05;100985.94;;;7.36;100.00
81835;BME280;71272;52.166;4.498;2024-03-23T05:03:30;100993.22;;;7.44;100.00
81835;BME280;71272;52.166;4.498;2024-03-23T05:05:55;100980.50;;;7.47;100.00
81835;BME280;71272;52.166;4.498;2024-03-23T05:08:21;100988.72;;;7.36;100.00
81835;BME280;71272;52.166;4.498;2024-03-23T05:10:46;100988.50;;;7.48;100.00
81835;BME280;71272;52.166;4.498;2024-03-23T05:13:12;100989.34;;;7.52;100.00
81835;BME280;71272;52.166;4.498;2024-03-23T05:15:37;100979.28;;;7.44;100.00
81835;BME280;71272;52.166;4.498;2024-03-23T05:18:03;100983.72;;;7.49;100.00
81835;BME280;71272;52.166;4.498;2024-03-23T05:20:28;100988.41;;;7.41;100.00
81835;BME280;71272;52.166;4.498;2024-03-23T05:22:57;100995.03;;;7.29;100.00
81835;BME280;71272;52.166;4.498;2024-03-23T05:25:22;100994.44;;;7.17;100.00
81835;BME280;71272;52.166;4.498;2024-03-23T05:27:48;100980.16;;;7.22;100.00
81835;BME280;71272;52.166;4.498;2024-03-23T05:30:14;100990.88;;;7.20;100.00
81835;BME280;71272;52.166;4.498;2024-03-23T05:32:39;100987.78;;;7.25;100.00
81835;BME280;71272;52.166;4.498;2024-03-23T05:35:06;100982.00;;;7.10;100.00
81835;BME280;71272;52.166;4.498;2024-03-23T05:37:32;100981.69;;;7.16;100.00
81835;BME280;71272;52.166;4.498;2024-03-23T05:39:59;100977.66;;;7.13;100.00
81835;BME280;71272;52.166;4.498;2024-03-23T05:42:24;100982.97;;;7.22;100.00
81835;BME280;71272;52.166;4.498;2024-03-23T05:44:50;100978.75;;;7.35;100.00
81835;BME280;71272;52.166;4.498;2024-03-23T05:47:15;100974.25;;;7.27;100.00
81835;BME280;71272;52.166;4.498;2024-03-23T05:49:42;100978.59;;;7.24;100.00
81835;BME280;71272;52.166;4.498;2024-03-23T05:52:10;100973.91;;;7.28;100.00
81835;BME280;71272;52.166;4.498;2024-03-23T05:54:36;100974.91;;;7.77;100.00
81835;BME280;71272;52.166;4.498;2024-03-23T05:57:02;100963.38;;;7.18;100.00
81835;BME280;71272;52.166;4.498;2024-03-23T05:59:28;100978.41;;;7.10;100.00
81835;BME280;71272;52.166;4.498;2024-03-23T06:01:54;100973.47;;;7.26;100.00
81835;BME280;71272;52.166;4.498;2024-03-23T06:04:19;100975.97;;;7.65;100.00
81835;BME280;71272;52.166;4.498;2024-03-23T06:06:45;100986.41;;;7.42;100.00
81835;BME280;71272;52.166;4.498;2024-03-23T06:09:11;100980.91;;;6.92;100.00
81835;BME280;71272;52.166;4.498;2024-03-23T06:11:36;100980.13;;;6.92;100.00
81835;BME280;71272;52.166;4.498;2024-03-23T06:14:01;100976.25;;;7.26;100.00
81835;BME280;71272;52.166;4.498;2024-03-23T06:16:28;100977.31;;;6.92;100.00
81835;BME280;71272;52.166;4.498;2024-03-23T06:18:53;100978.78;;;7.08;100.00
81835;BME280;71272;52.166;4.498;2024-03-23T06:21:20;100985.97;;;7.09;100.00
81835;BME280;71272;52.166;4.498;2024-03-23T06:23:46;100977.06;;;7.27;100.00
81835;BME280;71272;52.166;4.498;2024-03-23T06:26:18;100985.81;;;7.55;100.00
81835;BME280;71272;52.166;4.498;2024-03-23T06:28:44;100975.09;;;7.31;100.00
81835;BME280;71272;52.166;4.498;2024-03-23T06:31:10;100984.00;;;7.40;100.00
81835;BME280;71272;52.166;4.498;2024-03-23T06:33:35;100988.66;;;7.29;100.00
81835;BME280;71272;52.166;4.498;2024-03-23T06:36:01;100992.56;;;7.24;100.00
81835;BME280;71272;52.166;4.498;2024-03-23T06:38:28;100978.25;;;7.26;100.00
81835;BME280;71272;52.166;4.498;2024-03-23T06:40:53;100975.50;;;7.29;100.00
81835;BME280;71272;52.166;4.498;2024-03-23T06:43:18;100978.25;;;7.56;100.00
81835;BME280;71272;52.166;4.498;2024-03-23T06:45:44;100973.13;;;7.62;100.00
81835;BME280;71272;52.166;4.498;2024-03-23T06:48:09;100963.56;;;7.63;100.00
81835;BME280;71272;52.166;4.498;2024-03-23T06:50:34;100968.28;;;7.89;100.00
81835;BME280;71272;52.166;4.498;2024-03-23T06:53:00;100983.00;;;7.86;100.00
81835;BME280;71272;52.166;4.498;2024-03-23T06:55:27;100977.88;;;7.91;100.00
81835;BME280;71272;52.166;4.498;2024-03-23T06:57:53;100981.06;;;7.93;100.00
81835;BME280;71272;52.166;4.498;2024-03-23T07:00:18;100979.56;;;7.99;100.00
81835;BME280;71272;52.166;4.498;2024-03-23T07:02:44;100988.00;;;8.07;100.00
81835;BME280;71272;52.166;4.498;2024-03-23T07:05:12;100981.53;;;7.99;100.00
81835;BME280;71272;52.166;4.498;2024-03-23T07:07:40;100985.97;;;8.00;100.00
81835;BME280;71272;52.166;4.498;2024-03-23T07:10:06;100983.22;;;8.07;100.00
81835;BME280;71272;52.166;4.498;2024-03-23T07:12:31;100976.06;;;8.10;100.00
81835;BME280;71272;52.166;4.498;2024-03-23T07:14:57;100977.88;;;7.91;100.00
81835;BME280;71272;52.166;4.498;2024-03-23T07:17:22;100985.66;;;7.75;100.00
81835;BME280;71272;52.166;4.498;2024-03-23T07:19:47;100991.63;;;7.73;100.00
81835;BME280;71272;52.166;4.498;2024-03-23T07:22:13;100981.34;;;7.81;100.00
81835;BME280;71272;52.166;4.498;2024-03-23T07:24:40;100993.44;;;7.92;100.00
81835;BME280;71272;52.166;4.498;2024-03-23T07:27:05;100978.38;;;8.00;100.00
81835;BME280;71272;52.166;4.498;2024-03-23T07:29:31;100976.78;;;7.99;100.00
81835;BME280;71272;52.166;4.498;2024-03-23T07:31:56;100976.38;;;8.01;100.00
81835;BME280;71272;52.166;4.498;2024-03-23T07:34:22;100984.53;;;8.17;100.00
81835;BME280;71272;52.166;4.498;2024-03-23T07:36:47;100980.56;;;8.18;100.00
81835;BME280;71272;52.166;4.498;2024-03-23T07:39:12;100984.22;;;8.26;100.00
81835;BME280;71272;52.166;4.498;2024-03-23T07:41:37;100986.88;;;8.11;100.00
81835;BME280;71272;52.166;4.498;2024-03-23T07:44:03;100977.72;;;8.14;100.00
81835;BME280;71272;52.166;4.498;2024-03-23T07:46:28;100983.91;;;8.34;100.00
81835;BME280;71272;52.166;4.498;2024-03-23T07:48:54;100972.25;;;8.66;100.00
81835;BME280;71272;52.166;4.498;2024-03-23T07:51:23;100975.66;;;8.89;100.00
81835;BME280;71272;52.166;4.498;2024-03-23T07:53:48;100978.47;;;8.93;100.00
81835;BME280;71272;52.166;4.498;2024-03-23T07:56:15;100986.06;;;8.93;100.00
81835;BME280;71272;52.166;4.498;2024-03-23T07:58:40;100976.75;;;8.78;100.00
81835;BME280;71272;52.166;4.498;2024-03-23T08:01:08;100985.09;;;8.74;100.00
81835;BME280;71272;52.166;4.498;2024-03-23T08:03:34;100972.97;;;9.07;100.00
81835;BME280;71272;52.166;4.498;2024-03-23T08:08:36;100983.56;;;8.80;100.00
81835;BME280;71272;52.166;4.498;2024-03-23T08:11:01;100976.59;;;8.60;100.00
81835;BME280;71272;52.166;4.498;2024-03-23T08:13:27;100975.25;;;8.95;100.00
81835;BME280;71272;52.166;4.498;2024-03-23T08:15:56;100974.97;;;9.07;100.00
81835;BME280;71272;52.166;4.498;2024-03-23T08:18:22;100981.19;;;8.82;100.00
81835;BME280;71272;52.166;4.498;2024-03-23T08:20:55;100974.78;;;8.82;100.00
81835;BME280;71272;52.166;4.498;2024-03-23T08:23:20;100987.63;;;8.90;100.00
81835;BME280;71272;52.166;4.498;2024-03-23T08:25:46;100980.53;;;9.03;100.00
81835;BME280;71272;52.166;4.498;2024-03-23T08:28:11;100974.91;;;9.00;100.00
81835;BME280;71272;52.166;4.498;2024-03-23T08:30:36;100968.50;;;8.99;100.00
81835;BME280;71272;52.166;4.498;2024-03-23T08:33:02;100976.28;;;9.27;100.00
81835;BME280;71272;52.166;4.498;2024-03-23T08:35:27;101013.34;;;9.10;100.00
81835;BME280;71272;52.166;4.498;2024-03-23T08:37:52;100962.81;;;8.85;100.00
81835;BME280;71272;52.166;4.498;2024-03-23T08:40:18;100979.44;;;8.67;100.00
81835;BME280;71272;52.166;4.498;2024-03-23T08:42:43;100966.34;;;8.75;100.00
81835;BME280;71272;52.166;4.498;2024-03-23T08:45:08;100962.50;;;8.97;100.00
81835;BME280;71272;52.166;4.498;2024-03-23T08:47:34;100972.78;;;8.79;100.00
81835;BME280;71272;52.166;4.498;2024-03-23T08:50:00;100972.38;;;8.80;100.00
81835;BME280;71272;52.166;4.498;2024-03-23T08:52:26;100969.56;;;8.80;100.00
81835;BME280;71272;52.166;4.498;2024-03-23T08:54:53;100971.09;;;9.29;100.00
81835;BME280;71272;52.166;4.498;2024-03-23T08:57:18;100978.22;;;9.16;100.00
81835;BME280;71272;52.166;4.498;2024-03-23T08:59:44;100969.44;;;9.14;100.00
81835;BME280;71272;52.166;4.498;2024-03-23T09:02:09;100982.22;;;9.15;100.00
81835;BME280;71272;52.166;4.498;2024-03-23T09:04:34;100977.44;;;9.19;100.00
81835;BME280;71272;52.166;4.498;2024-03-23T09:07:00;100960.34;;;9.35;100.00
81835;BME280;71272;52.166;4.498;2024-03-23T09:09:26;100960.59;;;9.08;100.00
81835;BME280;71272;52.166;4.498;2024-03-23T09:11:51;100973.31;;;8.99;100.00
81835;BME280;71272;52.166;4.498;2024-03-23T09:14:16;100983.56;;;8.80;100.00
81835;BME280;71272;52.166;4.498;2024-03-23T09:16:41;100974.38;;;8.83;100.00
81835;BME280;71272;52.166;4.498;2024-03-23T09:19:07;100979.03;;;9.17;100.00
81835;BME280;71272;52.166;4.498;2024-03-23T09:21:32;100967.22;;;9.52;100.00
81835;BME280;71272;52.166;4.498;2024-03-23T09:23:58;100980.13;;;9.74;100.00
81835;BME280;71272;52.166;4.498;2024-03-23T09:26:23;100976.88;;;9.62;100.00
81835;BME280;71272;52.166;4.498;2024-03-23T09:28:49;100972.00;;;9.48;100.00
81835;BME280;71272;52.166;4.498;2024-03-23T09:31:14;100978.75;;;9.36;100.00
81835;BME280;71272;52.166;4.498;2024-03-23T09:33:41;100976.88;;;9.58;100.00
81835;BME280;71272;52.166;4.498;2024-03-23T09:36:07;100969.25;;;9.62;100.00
81835;BME280;71272;52.166;4.498;2024-03-23T09:38:33;100990.50;;;9.70;100.00
81835;BME280;71272;52.166;4.498;2024-03-23T09:40:59;100983.25;;;9.62;100.00
81835;BME280;71272;52.166;4.498;2024-03-23T09:43:25;100981.25;;;9.63;100.00
81835;BME280;71272;52.166;4.498;2024-03-23T09:45:50;100983.63;;;9.53;100.00
81835;BME280;71272;52.166;4.498;2024-03-23T09:48:16;100987.22;;;9.47;100.00
81835;BME280;71272;52.166;4.498;2024-03-23T09:50:43;100973.59;;;9.49;100.00
81835;BME280;71272;52.166;4.498;2024-03-23T09:53:11;100980.28;;;9.30;100.00
81835;BME280;71272;52.166;4.498;2024-03-23T09:55:38;100982.66;;;9.24;100.00
81835;BME280;71272;52.166;4.498;2024-03-23T09:58:04;100971.72;;;8.98;100.00
81835;BME280;71272;52.166;4.498;2024-03-23T10:00:34;100977.19;;;9.42;100.00
81835;BME280;71272;52.166;4.498;2024-03-23T10:03:00;100978.94;;;9.75;100.00
81835;BME280;71272;52.166;4.498;2024-03-23T10:05:29;100979.00;;;9.97;100.00
81835;BME280;71272;52.166;4.498;2024-03-23T10:07:54;100976.50;;;9.70;100.00
81835;BME280;71272;52.166;4.498;2024-03-23T10:10:20;100979.81;;;9.90;100.00
81835;BME280;71272;52.166;4.498;2024-03-23T10:12:49;100975.81;;;10.09;100.00
81835;BME280;71272;52.166;4.498;2024-03-23T10:15:24;100973.41;;;9.93;100.00
81835;BME280;71272;52.166;4.498;2024-03-23T10:17:52;100983.31;;;9.73;100.00
81835;BME280;71272;52.166;4.498;2024-03-23T10:20:21;100974.50;;;9.71;100.00
81835;BME280;71272;52.166;4.498;2024-03-23T10:22:50;100975.25;;;9.57;100.00
81835;BME280;71272;52.166;4.498;2024-03-23T10:25:23;100977.72;;;9.76;100.00
81835;BME280;71272;52.166;4.498;2024-03-23T10:28:01;100960.56;;;9.89;100.00
81835;BME280;71272;52.166;4.498;2024-03-23T10:30:26;100967.34;;;9.77;100.00
81835;BME280;71272;52.166;4.498;2024-03-23T10:33:09;100973.47;;;10.15;100.00
81835;BME280;71272;52.166;4.498;2024-03-23T10:35:36;100992.19;;;9.89;100.00
81835;BME280;71272;52.166;4.498;2024-03-23T10:38:04;100970.25;;;10.20;100.00
81835;BME280;71272;52.166;4.498;2024-03-23T10:40:31;100975.75;;;9.81;100.00
81835;BME280;71272;52.166;4.498;2024-03-23T10:42:57;100967.41;;;9.98;100.00
81835;BME280;71272;52.166;4.498;2024-03-23T10:45:24;100962.50;;;9.63;100.00
81835;BME280;71272;52.166;4.498;2024-03-23T10:47:49;100960.97;;;9.98;100.00
81835;BME280;71272;52.166;4.498;2024-03-23T10:50:14;100969.03;;;10.07;100.00
81835;BME280;71272;52.166;4.498;2024-03-23T10:52:41;100964.97;;;9.90;100.00
81835;BME280;71272;52.166;4.498;2024-03-23T10:55:10;100967.63;;;9.54;100.00
81835;BME280;71272;52.166;4.498;2024-03-23T10:57:44;100968.00;;;9.49;100.00
81835;BME280;71272;52.166;4.498;2024-03-23T11:00:13;100958.91;;;9.66;100.00
81835;BME280;71272;52.166;4.498;2024-03-23T11:02:39;100957.63;;;9.49;100.00
81835;BME280;71272;52.166;4.498;2024-03-23T11:05:28;100974.75;;;9.37;100.00
81835;BME280;71272;52.166;4.498;2024-03-23T11:07:54;100969.00;;;9.96;100.00
81835;BME280;71272;52.166;4.498;2024-03-23T11:10:30;100955.38;;;9.91;100.00
81835;BME280;71272;52.166;4.498;2024-03-23T11:12:56;100953.88;;;10.33;100.00
81835;BME280;71272;52.166;4.498;2024-03-23T11:15:22;100944.28;;;10.48;100.00
81835;BME280;71272;52.166;4.498;2024-03-23T11:18:06;100949.09;;;10.76;100.00
81835;BME280;71272;52.166;4.498;2024-03-23T11:20:34;100991.59;;;10.64;100.00
81835;BME280;71272;52.166;4.498;2024-03-23T11:23:00;100952.25;;;10.25;100.00
81835;BME280;71272;52.166;4.498;2024-03-23T11:25:26;100937.00;;;10.08;100.00
81835;BME280;71272;52.166;4.498;2024-03-23T11:27:53;100943.50;;;10.48;100.00
81835;BME280;71272;52.166;4.498;2024-03-23T11:30:24;100941.81;;;10.07;100.00
81835;BME280;71272;52.166;4.498;2024-03-23T11:32:56;100961.88;;;10.27;100.00
81835;BME280;71272;52.166;4.498;2024-03-23T11:38:13;100944.25;;;10.34;100.00
81835;BME280;71272;52.166;4.498;2024-03-23T11:40:44;100937.09;;;10.40;100.00
81835;BME280;71272;52.166;4.498;2024-03-23T11:43:12;100932.59;;;11.25;100.00
81835;BME280;71272;52.166;4.498;2024-03-23T11:45:49;100933.28;;;11.50;100.00
81835;BME280;71272;52.166;4.498;2024-03-23T11:48:19;100950.84;;;12.50;100.00
81835;BME280;71272;52.166;4.498;2024-03-23T11:50:46;100927.75;;;14.37;100.00
81835;BME280;71272;52.166;4.498;2024-03-23T11:55:59;100933.28;;;13.59;100.00
81835;BME280;71272;52.166;4.498;2024-03-23T11:58:26;100921.59;;;13.91;100.00
81835;BME280;71272;52.166;4.498;2024-03-23T12:03:17;100928.06;;;14.70;97.95
81835;BME280;71272;52.166;4.498;2024-03-23T12:05:50;100928.16;;;15.09;95.00
81835;BME280;71272;52.166;4.498;2024-03-23T12:08:23;100925.50;;;14.79;94.06
81835;BME280;71272;52.166;4.498;2024-03-23T12:11:04;100915.50;;;15.38;94.54
81835;BME280;71272;52.166;4.498;2024-03-23T12:13:29;100906.22;;;15.17;82.03
81835;BME280;71272;52.166;4.498;2024-03-23T12:15:55;100912.63;;;14.24;86.42
81835;BME280;71272;52.166;4.498;2024-03-23T12:18:33;100904.13;;;14.00;91.37
81835;BME280;71272;52.166;4.498;2024-03-23T12:20:58;100908.47;;;14.05;93.46
81835;BME280;71272;52.166;4.498;2024-03-23T12:23:24;100907.63;;;12.74;100.00
81835;BME280;71272;52.166;4.498;2024-03-23T12:25:49;100901.91;;;13.19;100.00
81835;BME280;71272;52.166;4.498;2024-03-23T12:28:14;100898.25;;;11.87;100.00
81835;BME280;71272;52.166;4.498;2024-03-23T12:30:40;100918.25;;;11.96;100.00
81835;BME280;71272;52.166;4.498;2024-03-23T12:33:05;100911.78;;;11.08;100.00
81835;BME280;71272;52.166;4.498;2024-03-23T12:35:31;100901.34;;;12.97;100.00
81835;BME280;71272;52.166;4.498;2024-03-23T12:37:57;100902.09;;;13.43;100.00
81835;BME280;71272;52.166;4.498;2024-03-23T12:40:22;100897.25;;;15.22;100.00
81835;BME280;71272;52.166;4.498;2024-03-23T12:42:48;100877.59;;;15.15;97.00
81835;BME280;71272;52.166;4.498;2024-03-23T12:45:13;100925.00;;;13.03;100.00
81835;BME280;71272;52.166;4.498;2024-03-23T12:47:38;100886.34;;;14.57;100.00
81835;BME280;71272;52.166;4.498;2024-03-23T12:50:04;100893.69;;;15.78;87.69
81835;BME280;71272;52.166;4.498;2024-03-23T12:52:30;100878.75;;;15.18;88.71
81835;BME280;71272;52.166;4.498;2024-03-23T12:54:56;100878.34;;;15.95;76.62
81835;BME280;71272;52.166;4.498;2024-03-23T12:57:25;100918.09;;;15.48;75.46
81835;BME280;71272;52.166;4.498;2024-03-23T12:59:54;100905.72;;;14.55;78.28
81835;BME280;71272;52.166;4.498;2024-03-23T13:02:20;100892.22;;;12.44;100.00
81835;BME280;71272;52.166;4.498;2024-03-23T13:04:54;100885.75;;;11.95;100.00
81835;BME280;71272;52.166;4.498;2024-03-23T13:07:21;100882.44;;;12.56;100.00
81835;BME280;71272;52.166;4.498;2024-03-23T13:09:47;100879.44;;;13.81;97.73
81835;BME280;71272;52.166;4.498;2024-03-23T13:12:14;100896.63;;;14.68;88.74
81835;BME280;71272;52.166;4.498;2024-03-23T13:14:40;100888.72;;;16.68;77.87
81835;BME280;71272;52.166;4.498;2024-03-23T13:17:06;100874.41;;;17.33;71.37
81835;BME280;71272;52.166;4.498;2024-03-23T13:19:31;100901.34;;;16.14;73.49
81835;BME280;71272;52.166;4.498;2024-03-23T13:21:57;100875.66;;;15.72;77.08
81835;BME280;71272;52.166;4.498;2024-03-23T13:24:25;100885.41;;;14.64;73.58
81835;BME280;71272;52.166;4.498;2024-03-23T13:26:51;100884.97;;;13.26;84.36
81835;BME280;71272;52.166;4.498;2024-03-23T13:29:18;100854.06;;;14.08;82.91
81835;BME280;71272;52.166;4.498;2024-03-23T13:31:43;100871.06;;;15.58;71.24
81835;BME280;71272;52.166;4.498;2024-03-23T13:34:08;100859.00;;;16.10;69.88
81835;BME280;71272;52.166;4.498;2024-03-23T13:36:34;100858.97;;;16.76;65.42
81835;BME280;71272;52.166;4.498;2024-03-23T13:39:01;100848.66;;;17.27;64.83
81835;BME280;71272;52.166;4.498;2024-03-23T13:41:26;100861.56;;;17.28;62.40
81835;BME280;71272;52.166;4.498;2024-03-23T13:43:52;100844.38;;;17.36;61.99
81835;BME280;71272;52.166;4.498;2024-03-23T13:46:18;100850.59;;;16.23;64.30